createdAt,value
2023-05-08T00:00:40.234Z,92.67
2023-05-08T00:01:35.345Z,92.59
2023-05-08T00:02:30.400Z,92.60
2023-05-08T00:03:25.508Z,92.64
2023-05-08T00:04:20.751Z,92.63
2023-05-08T00:05:15.597Z,92.58
2023-05-08T00:06:10.589Z,92.66
2023-05-08T00:07:05.697Z,92.71
2023-05-08T00:08:00.671Z,92.72
2023-05-08T00:08:55.838Z,92.77
2023-05-08T00:09:50.925Z,92.78
2023-05-08T00:10:45.935Z,92.76
2023-05-08T00:11:40.997Z,92.72
2023-05-08T00:12:36.204Z,92.70
2023-05-08T00:13:31.175Z,92.64
2023-05-08T00:14:26.445Z,92.61
2023-05-08T00:15:23.823Z,92.67
2023-05-08T00:16:19.009Z,92.66
2023-05-08T00:17:13.965Z,92.60
2023-05-08T00:18:09.160Z,92.58
2023-05-08T00:19:04.244Z,92.61
2023-05-08T00:19:59.686Z,92.68
2023-05-08T00:20:54.537Z,92.76
2023-05-08T00:21:49.670Z,92.85
2023-05-08T00:22:44.654Z,92.86
2023-05-08T00:23:39.756Z,92.85
2023-05-08T00:24:35.104Z,92.82
2023-05-08T00:25:30.219Z,92.92
2023-05-08T00:26:25.473Z,92.79
2023-05-08T00:27:20.640Z,92.76
2023-05-08T00:28:15.736Z,92.72
2023-05-08T00:29:11.160Z,92.67
2023-05-08T00:30:06.450Z,92.58
2023-05-08T00:31:01.577Z,92.55
2023-05-08T00:31:56.843Z,92.57
2023-05-08T00:32:52.132Z,92.55
2023-05-08T00:33:47.193Z,92.52
2023-05-08T00:34:42.745Z,92.50
2023-05-08T00:35:37.582Z,92.47
2023-05-08T00:36:32.825Z,92.53
2023-05-08T00:37:28.060Z,92.61
2023-05-08T00:38:23.399Z,92.67
2023-05-08T00:39:18.179Z,92.68
2023-05-08T00:40:13.645Z,92.68
2023-05-08T00:41:08.306Z,92.71
2023-05-08T00:42:07.908Z,92.74
2023-05-08T00:43:03.015Z,92.79
2023-05-08T00:43:58.412Z,92.82
2023-05-08T00:44:54.364Z,92.84
2023-05-08T00:45:49.443Z,92.76
2023-05-08T00:46:44.922Z,92.77
2023-05-08T00:47:40.954Z,92.74
2023-05-08T00:48:36.058Z,92.75
2023-05-08T00:49:32.125Z,92.77
2023-05-08T00:50:27.077Z,92.76
2023-05-08T00:51:22.584Z,92.82
2023-05-08T00:52:18.109Z,92.86
2023-05-08T00:53:13.381Z,92.94
2023-05-08T00:54:09.231Z,92.95
2023-05-08T00:55:04.466Z,92.95
2023-05-08T00:55:59.858Z,93.00
2023-05-08T00:56:55.653Z,93.03
2023-05-08T00:57:50.778Z,92.98
2023-05-08T00:58:46.053Z,92.91
2023-05-08T00:59:42.452Z,92.87
2023-05-08T01:00:37.615Z,92.88
2023-05-08T01:01:33.443Z,92.89
2023-05-08T01:02:28.694Z,92.84
2023-05-08T01:03:23.849Z,92.93
2023-05-08T01:04:19.591Z,93.04
2023-05-08T01:05:14.747Z,93.11
2023-05-08T01:06:10.584Z,93.14
2023-05-08T01:07:05.812Z,93.14
2023-05-08T01:08:01.112Z,93.16
2023-05-08T01:08:56.940Z,93.20
2023-05-08T01:09:52.229Z,93.23
2023-05-08T01:10:47.426Z,93.22
2023-05-08T01:11:43.798Z,93.27
2023-05-08T01:12:39.119Z,93.24
2023-05-08T01:13:34.935Z,93.22
2023-05-08T01:14:30.057Z,93.23
2023-05-08T01:15:25.340Z,93.25
2023-05-08T01:16:21.216Z,93.31
2023-05-08T01:17:16.534Z,93.32
2023-05-08T01:18:12.467Z,93.38
2023-05-08T01:19:07.831Z,93.42
2023-05-08T01:20:02.958Z,93.42
2023-05-08T01:20:58.839Z,93.48
2023-05-08T01:21:54.063Z,93.49
2023-05-08T01:22:49.449Z,93.49
2023-05-08T01:23:45.721Z,93.41
2023-05-08T01:24:40.858Z,93.35
2023-05-08T01:25:36.660Z,93.39
2023-05-08T01:26:31.891Z,93.40
2023-05-08T01:27:27.249Z,93.37
2023-05-08T01:28:22.945Z,93.40
2023-05-08T01:29:18.235Z,93.38
2023-05-08T01:30:14.225Z,93.38
2023-05-08T01:31:09.315Z,93.38
2023-05-08T01:32:04.866Z,93.41
2023-05-08T01:33:00.633Z,93.43
2023-05-08T01:33:55.866Z,93.38
2023-05-08T01:34:51.123Z,93.38
2023-05-08T01:35:47.490Z,93.38
2023-05-08T01:36:42.797Z,93.44
2023-05-08T01:37:38.564Z,93.37
2023-05-08T01:38:33.759Z,93.41
2023-05-08T01:39:29.062Z,93.50
2023-05-08T01:40:25.057Z,93.53
2023-05-08T01:41:20.130Z,93.54
2023-05-08T01:42:15.257Z,93.53
2023-05-08T01:43:10.505Z,93.48
2023-05-08T01:44:06.447Z,93.50
2023-05-08T01:45:01.859Z,93.52
2023-05-08T01:45:56.855Z,93.53
2023-05-08T01:46:53.356Z,93.57
2023-05-08T01:47:48.666Z,93.60
2023-05-08T01:48:44.520Z,93.62
2023-05-08T01:49:39.732Z,93.67
2023-05-08T01:50:35.205Z,93.74
2023-05-08T01:51:30.742Z,93.81
2023-05-08T01:52:26.045Z,93.78
2023-05-08T01:53:21.848Z,93.77
2023-05-08T01:54:17.082Z,93.74
2023-05-08T01:55:12.348Z,93.76
2023-05-08T01:56:08.210Z,93.76
2023-05-08T01:57:03.328Z,93.78
2023-05-08T01:57:58.618Z,93.85
2023-05-08T01:58:54.700Z,93.88
2023-05-08T01:59:49.937Z,93.89
2023-05-08T02:00:45.206Z,93.91
2023-05-08T02:01:40.494Z,93.98
2023-05-08T02:02:35.781Z,93.99
2023-05-08T02:03:30.865Z,94.13
2023-05-08T02:04:25.870Z,94.03
2023-05-08T02:05:20.796Z,94.04
2023-05-08T02:06:16.100Z,94.09
2023-05-08T02:07:10.970Z,94.14
2023-05-08T02:08:05.930Z,94.17
2023-05-08T02:09:01.060Z,94.19
2023-05-08T02:09:56.105Z,94.22
2023-05-08T02:10:54.510Z,94.19
2023-05-08T02:11:49.469Z,94.18
2023-05-08T02:14:10.205Z,94.60
2023-05-08T02:15:05.329Z,94.49
2023-05-08T02:16:00.696Z,94.36
2023-05-08T02:16:55.814Z,94.25
2023-05-08T02:17:51.046Z,94.17
2023-05-08T02:18:46.347Z,94.09
2023-05-08T02:19:41.468Z,94.03
2023-05-08T02:20:36.687Z,94.06
2023-05-08T02:21:32.096Z,94.08
2023-05-08T02:22:27.119Z,94.06
2023-05-08T02:23:22.316Z,94.06
2023-05-08T02:24:17.764Z,94.03
2023-05-08T02:25:12.697Z,94.02
2023-05-08T02:26:07.969Z,93.99
2023-05-08T02:27:03.047Z,93.94
2023-05-08T02:27:58.326Z,93.90
2023-05-08T02:28:53.531Z,93.86
2023-05-08T02:29:48.846Z,93.82
2023-05-08T02:30:43.913Z,93.79
2023-05-08T02:31:39.397Z,93.79
2023-05-08T02:32:34.355Z,93.75
2023-05-08T02:33:29.630Z,93.65
2023-05-08T02:34:25.005Z,93.58
2023-05-08T02:35:20.205Z,93.54
2023-05-08T02:36:15.255Z,93.53
2023-05-08T02:37:10.693Z,93.55
2023-05-08T02:38:05.792Z,93.55
2023-05-08T02:39:01.037Z,93.54
2023-05-08T02:39:56.257Z,93.50
2023-05-08T02:40:51.493Z,93.47
2023-05-08T02:41:46.907Z,93.43
2023-05-08T02:42:41.915Z,93.39
2023-05-08T02:43:37.128Z,93.30
2023-05-08T02:44:32.468Z,93.22
2023-05-08T02:45:27.553Z,93.17
2023-05-08T02:46:22.904Z,93.15
2023-05-08T02:47:18.009Z,93.15
2023-05-08T02:48:13.430Z,93.14
2023-05-08T02:49:08.364Z,93.13
2023-05-08T02:50:03.604Z,93.08
2023-05-08T02:50:58.811Z,93.05
2023-05-08T02:51:54.058Z,93.02
2023-05-08T02:52:49.352Z,92.98
2023-05-08T02:53:44.603Z,92.99
2023-05-08T02:54:39.977Z,93.00
2023-05-08T02:55:35.217Z,92.89
2023-05-08T02:56:30.500Z,92.88
2023-05-08T02:57:25.840Z,92.94
2023-05-08T02:58:21.084Z,92.97
2023-05-08T02:59:16.340Z,93.01
2023-05-08T03:00:11.709Z,93.04
2023-05-08T03:01:06.932Z,93.11
2023-05-08T03:02:02.022Z,93.12
2023-05-08T03:02:57.372Z,93.11
2023-05-08T03:03:52.748Z,93.17
2023-05-08T03:04:47.774Z,93.16
2023-05-08T03:05:42.876Z,93.16
2023-05-08T03:06:38.106Z,93.17
2023-05-08T03:07:33.325Z,93.18
2023-05-08T03:08:28.745Z,93.18
2023-05-08T03:09:23.720Z,93.18
2023-05-08T03:10:19.002Z,93.19
2023-05-08T03:11:14.194Z,93.18
2023-05-08T03:12:09.430Z,93.21
2023-05-08T03:13:04.751Z,93.25
2023-05-08T03:14:00.145Z,93.20
2023-05-08T03:14:55.219Z,93.22
2023-05-08T03:15:50.377Z,93.21
2023-05-08T03:16:45.564Z,93.16
2023-05-08T03:17:40.752Z,93.18
2023-05-08T03:18:36.162Z,93.21
2023-05-08T03:19:31.301Z,93.20
2023-05-08T03:20:26.483Z,93.22
2023-05-08T03:21:21.825Z,93.24
2023-05-08T03:22:16.950Z,93.28
2023-05-08T03:23:12.290Z,93.29
2023-05-08T03:24:07.709Z,93.31
2023-05-08T03:25:03.011Z,93.31
2023-05-08T03:25:58.175Z,93.32
2023-05-08T03:26:53.496Z,93.34
2023-05-08T03:27:48.687Z,93.34
2023-05-08T03:28:44.172Z,93.37
2023-05-08T03:29:39.160Z,93.38
2023-05-08T03:30:34.501Z,93.36
2023-05-08T03:31:29.785Z,93.34
2023-05-08T03:32:25.134Z,93.32
2023-05-08T03:33:20.407Z,93.36
2023-05-08T03:34:15.701Z,93.36
2023-05-08T03:35:10.972Z,93.35
2023-05-08T03:36:06.238Z,93.36
2023-05-08T03:37:01.322Z,93.36
2023-05-08T03:37:57.489Z,93.38
2023-05-08T03:38:51.787Z,93.39
2023-05-08T03:39:47.084Z,93.42
2023-05-08T03:40:42.423Z,93.39
2023-05-08T03:41:37.746Z,93.39
2023-05-08T03:42:33.205Z,93.39
2023-05-08T03:43:28.592Z,93.42
2023-05-08T03:44:23.609Z,93.47
2023-05-08T03:45:19.006Z,93.52
2023-05-08T03:46:14.388Z,93.56
2023-05-08T03:47:09.561Z,93.61
2023-05-08T03:48:04.896Z,93.68
2023-05-08T03:49:00.384Z,93.75
2023-05-08T03:49:55.393Z,93.77
2023-05-08T03:50:50.734Z,93.80
2023-05-08T03:51:46.056Z,93.83
2023-05-08T03:52:41.441Z,93.82
2023-05-08T03:53:36.622Z,93.82
2023-05-08T03:54:31.926Z,93.81
2023-05-08T03:55:27.231Z,93.72
2023-05-08T03:56:24.082Z,93.65
2023-05-08T03:57:17.694Z,93.63
2023-05-08T03:58:13.016Z,93.60
2023-05-08T03:59:08.299Z,93.56
2023-05-08T04:00:03.649Z,93.58
2023-05-08T04:00:58.804Z,93.57
2023-05-08T04:01:54.276Z,93.49
2023-05-08T04:02:49.444Z,93.47
2023-05-08T04:03:44.733Z,93.47
2023-05-08T04:04:39.925Z,93.49
2023-05-08T04:05:35.084Z,93.52
2023-05-08T04:06:35.688Z,93.53
2023-05-08T04:07:26.772Z,93.56
2023-05-08T04:08:21.061Z,93.58
2023-05-08T04:09:16.396Z,93.64
2023-05-08T04:10:12.979Z,93.69
2023-05-08T04:11:08.222Z,93.76
2023-05-08T04:12:03.559Z,93.82
2023-05-08T04:12:59.022Z,93.88
2023-05-08T04:13:54.210Z,93.91
2023-05-08T04:14:49.686Z,93.96
2023-05-08T04:15:44.877Z,93.94
2023-05-08T04:16:40.352Z,93.99
2023-05-08T04:17:35.818Z,93.95
2023-05-08T04:18:31.307Z,93.92
2023-05-08T04:19:26.514Z,93.92
2023-05-08T04:20:21.971Z,93.92
2023-05-08T04:21:17.290Z,94.03
2023-05-08T04:22:12.728Z,94.04
2023-05-08T04:23:08.015Z,94.02
2023-05-08T04:24:03.444Z,94.10
2023-05-08T04:24:58.732Z,94.12
2023-05-08T04:25:54.145Z,94.21
2023-05-08T04:26:49.390Z,94.26
2023-05-08T04:27:44.844Z,94.26
2023-05-08T04:28:40.130Z,94.27
2023-05-08T04:29:35.126Z,94.37
2023-05-08T04:30:30.114Z,94.32
2023-05-08T04:31:25.234Z,94.38
2023-05-08T04:32:20.148Z,94.43
2023-05-08T04:33:15.539Z,94.43
2023-05-08T04:34:10.284Z,94.47
2023-05-08T04:35:05.481Z,94.52
2023-05-08T04:36:00.460Z,94.54
2023-05-08T04:36:55.611Z,94.52
2023-05-08T04:37:50.625Z,94.52
2023-05-08T04:38:45.879Z,94.57
2023-05-08T04:39:43.105Z,94.62
2023-05-08T04:40:35.749Z,94.66
2023-05-08T04:41:31.026Z,94.75
2023-05-08T04:42:28.957Z,94.78
2023-05-08T04:43:24.002Z,94.80
2023-05-08T04:44:19.056Z,94.82
2023-05-08T04:45:14.331Z,94.83
2023-05-08T04:46:09.290Z,94.88
2023-05-08T04:47:04.266Z,94.98
2023-05-08T04:47:59.484Z,95.01
2023-05-08T04:48:54.611Z,95.02
2023-05-08T04:49:49.546Z,95.02
2023-05-08T04:50:44.766Z,95.03
2023-05-08T04:51:39.835Z,95.07
2023-05-08T04:52:35.698Z,95.28
2023-05-08T04:53:31.367Z,95.19
2023-05-08T04:54:26.561Z,95.17
2023-05-08T04:55:22.075Z,95.15
2023-05-08T04:56:17.384Z,95.15
2023-05-08T04:57:12.806Z,95.18
2023-05-08T04:58:08.185Z,95.21
2023-05-08T04:59:03.559Z,95.27
2023-05-08T04:59:58.877Z,95.23
2023-05-08T05:00:54.206Z,95.21
2023-05-08T05:01:49.846Z,95.18
2023-05-08T05:02:45.125Z,95.18
2023-05-08T05:03:40.795Z,95.17
2023-05-08T05:04:36.485Z,95.14
2023-05-08T05:05:31.566Z,95.16
2023-05-08T05:06:26.908Z,95.17
2023-05-08T05:07:22.260Z,95.10
2023-05-08T05:08:17.558Z,95.02
2023-05-08T05:09:12.859Z,95.11
2023-05-08T05:10:07.743Z,94.91
2023-05-08T05:11:02.973Z,94.82
2023-05-08T05:11:58.402Z,94.76
2023-05-08T05:12:53.266Z,94.74
2023-05-08T05:13:48.412Z,94.67
2023-05-08T05:14:43.353Z,94.61
2023-05-08T05:15:38.376Z,94.62
2023-05-08T05:16:33.841Z,94.62
2023-05-08T05:17:28.570Z,94.64
2023-05-08T05:18:23.667Z,94.66
2023-05-08T05:19:18.936Z,94.69
2023-05-08T05:20:16.185Z,94.58
2023-05-08T05:21:11.161Z,94.49
2023-05-08T05:22:06.250Z,94.50
2023-05-08T05:23:01.228Z,94.44
2023-05-08T05:23:56.494Z,94.46
2023-05-08T05:24:51.426Z,94.43
2023-05-08T05:25:46.554Z,94.33
2023-05-08T05:26:41.353Z,94.31
2023-05-08T05:27:36.543Z,94.31
2023-05-08T05:28:31.617Z,94.36
2023-05-08T05:29:28.354Z,94.43
2023-05-08T05:30:23.472Z,94.47
2023-05-08T05:31:19.273Z,94.49
2023-05-08T05:32:14.564Z,94.54
2023-05-08T05:33:09.998Z,94.61
2023-05-08T05:34:05.783Z,94.64
2023-05-08T05:35:01.197Z,94.65
2023-05-08T05:35:56.865Z,94.62
2023-05-08T05:36:52.323Z,94.67
2023-05-08T05:37:47.778Z,94.59
2023-05-08T05:38:43.564Z,94.67
2023-05-08T05:39:39.256Z,94.71
2023-05-08T05:40:34.614Z,94.78
2023-05-08T05:41:31.264Z,94.82
2023-05-08T05:42:26.692Z,94.89
2023-05-08T05:43:22.380Z,94.93
2023-05-08T05:44:17.861Z,94.87
2023-05-08T05:45:13.433Z,94.74
2023-05-08T05:46:09.202Z,94.64
2023-05-08T05:47:04.586Z,94.68
2023-05-08T05:48:00.462Z,94.71
2023-05-08T05:48:55.812Z,94.69
2023-05-08T05:49:51.594Z,94.64
2023-05-08T05:50:47.231Z,94.61
2023-05-08T05:51:42.711Z,94.63
2023-05-08T05:52:38.115Z,94.62
2023-05-08T05:53:34.446Z,94.72
2023-05-08T05:54:30.002Z,94.76
2023-05-08T05:55:25.748Z,94.76
2023-05-08T05:56:21.093Z,94.76
2023-05-08T05:57:16.448Z,94.65
2023-05-08T05:58:12.323Z,94.57
2023-05-08T05:59:07.947Z,94.52
2023-05-08T06:00:03.895Z,94.48
2023-05-08T06:00:59.121Z,94.44
2023-05-08T06:01:54.388Z,94.45
2023-05-08T06:02:50.467Z,94.52
2023-05-08T06:03:45.829Z,94.55
2023-05-08T06:04:41.444Z,94.54
2023-05-08T06:05:37.528Z,94.53
2023-05-08T06:06:33.011Z,94.53
2023-05-08T06:07:28.833Z,94.56
2023-05-08T06:08:24.299Z,94.48
2023-05-08T06:09:19.864Z,94.41
2023-05-08T06:10:15.497Z,94.37
2023-05-08T06:11:10.928Z,94.28
2023-05-08T06:12:06.808Z,94.28
2023-05-08T06:13:02.161Z,94.28
2023-05-08T06:13:57.710Z,94.23
2023-05-08T06:14:53.339Z,94.24
2023-05-08T06:15:48.668Z,94.19
2023-05-08T06:16:44.191Z,94.17
2023-05-08T06:17:39.623Z,94.22
2023-05-08T06:18:35.446Z,94.31
2023-05-08T06:19:31.114Z,94.18
2023-05-08T06:20:26.716Z,94.09
2023-05-08T06:21:22.217Z,94.17
2023-05-08T06:22:17.672Z,94.20
2023-05-08T06:23:13.273Z,94.15
2023-05-08T06:24:09.844Z,94.17
2023-05-08T06:25:05.179Z,94.25
2023-05-08T06:26:00.914Z,94.37
2023-05-08T06:26:56.365Z,94.38
2023-05-08T06:27:51.984Z,94.29
2023-05-08T06:28:48.375Z,94.28
2023-05-08T06:29:43.143Z,94.22
2023-05-08T06:30:38.955Z,94.25
2023-05-08T06:31:34.427Z,94.25
2023-05-08T06:32:29.974Z,94.10
2023-05-08T06:33:26.985Z,94.10
2023-05-08T06:34:21.425Z,94.12
2023-05-08T06:35:16.725Z,94.21
2023-05-08T06:36:12.088Z,94.21
2023-05-08T06:37:07.367Z,94.03
2023-05-08T06:38:02.870Z,94.01
2023-05-08T06:38:58.057Z,94.01
2023-05-08T06:40:03.884Z,94.09
2023-05-08T06:40:49.070Z,94.25
2023-05-08T06:41:43.181Z,94.11
2023-05-08T06:42:38.222Z,94.09
2023-05-08T06:43:33.694Z,93.97
2023-05-08T06:44:29.033Z,94.10
2023-05-08T06:45:24.003Z,93.89
2023-05-08T06:46:19.065Z,93.83
2023-05-08T06:47:14.173Z,93.79
2023-05-08T06:48:09.265Z,93.84
2023-05-08T06:49:04.611Z,93.87
2023-05-08T06:49:59.402Z,93.93
2023-05-08T06:50:54.448Z,94.02
2023-05-08T06:51:49.517Z,94.02
2023-05-08T06:52:44.607Z,94.09
2023-05-08T06:53:39.808Z,94.12
2023-05-08T06:54:34.753Z,94.10
2023-05-08T06:55:32.216Z,94.09
2023-05-08T06:56:27.272Z,94.10
2023-05-08T06:57:22.353Z,93.88
2023-05-08T06:58:17.413Z,93.80
2023-05-08T06:59:12.572Z,93.75
2023-05-08T07:00:07.689Z,93.74
2023-05-08T07:01:02.693Z,93.70
2023-05-08T07:01:57.768Z,93.68
2023-05-08T07:02:52.962Z,93.59
2023-05-08T07:03:48.583Z,93.54
2023-05-08T07:04:44.725Z,93.63
2023-05-08T07:05:40.047Z,93.62
2023-05-08T07:06:35.897Z,93.51
2023-05-08T07:07:31.273Z,93.44
2023-05-08T07:08:26.882Z,93.46
2023-05-08T07:09:22.610Z,93.42
2023-05-08T07:10:18.028Z,93.35
2023-05-08T07:11:13.913Z,93.35
2023-05-08T07:12:09.240Z,93.42
2023-05-08T07:13:04.718Z,93.36
2023-05-08T07:14:00.717Z,93.18
2023-05-08T07:14:57.903Z,93.07
2023-05-08T07:15:51.441Z,93.12
2023-05-08T07:16:46.653Z,93.34
2023-05-08T07:17:41.538Z,93.49
2023-05-08T07:18:36.682Z,93.60
2023-05-08T07:19:31.692Z,93.61
2023-05-08T07:20:26.806Z,93.57
2023-05-08T07:21:21.824Z,93.50
2023-05-08T07:22:16.899Z,93.44
2023-05-08T07:23:11.940Z,93.39
2023-05-08T07:24:07.044Z,93.33
2023-05-08T07:25:02.080Z,93.27
2023-05-08T07:25:57.226Z,93.32
2023-05-08T07:26:54.789Z,93.20
2023-05-08T07:27:49.867Z,93.13
2023-05-08T07:28:44.930Z,93.04
2023-05-08T07:29:40.034Z,92.96
2023-05-08T07:30:35.088Z,92.83
2023-05-08T07:31:30.232Z,92.66
2023-05-08T07:32:25.207Z,92.66
2023-05-08T07:33:20.368Z,92.65
2023-05-08T07:34:15.390Z,92.66
2023-05-08T07:35:11.386Z,92.65
2023-05-08T07:36:07.210Z,92.72
2023-05-08T07:37:02.653Z,92.61
2023-05-08T07:37:58.503Z,92.36
2023-05-08T07:38:54.055Z,92.28
2023-05-08T07:39:49.472Z,92.29
2023-05-08T07:40:45.248Z,92.33
2023-05-08T07:41:40.891Z,92.24
2023-05-08T07:42:36.583Z,92.17
2023-05-08T07:43:31.853Z,91.94
2023-05-08T07:44:27.265Z,91.68
2023-05-08T07:45:22.951Z,91.55
2023-05-08T07:46:18.486Z,91.34
2023-05-08T07:47:14.127Z,91.34
2023-05-08T07:48:13.094Z,91.49
2023-05-08T07:49:08.730Z,91.63
2023-05-08T07:50:04.051Z,91.74
2023-05-08T07:50:59.925Z,91.45
2023-05-08T07:51:55.278Z,91.30
2023-05-08T07:52:50.741Z,91.26
2023-05-08T07:53:47.156Z,91.32
2023-05-08T07:54:42.476Z,91.22
2023-05-08T07:55:38.347Z,91.15
2023-05-08T07:56:33.845Z,91.11
2023-05-08T07:57:29.326Z,91.18
2023-05-08T07:58:25.039Z,91.23
2023-05-08T07:59:20.427Z,91.30
2023-05-08T08:00:16.324Z,91.41
2023-05-08T08:01:11.594Z,91.40
2023-05-08T08:02:06.898Z,91.42
2023-05-08T08:03:02.941Z,91.44
2023-05-08T08:03:58.355Z,91.45
2023-05-08T08:04:53.745Z,91.28
2023-05-08T08:05:49.199Z,91.05
2023-05-08T08:06:44.681Z,90.70
2023-05-08T08:07:41.338Z,90.40
2023-05-08T08:08:36.797Z,90.21
2023-05-08T08:09:32.305Z,90.46
2023-05-08T08:10:28.044Z,90.65
2023-05-08T08:11:23.505Z,90.71
2023-05-08T08:12:18.970Z,91.01
2023-05-08T08:14:38.073Z,91.81
2023-05-08T08:15:33.153Z,91.79
2023-05-08T08:16:28.687Z,91.53
2023-05-08T08:17:25.500Z,91.33
2023-05-08T08:18:19.708Z,91.22
2023-05-08T08:19:15.046Z,91.06
2023-05-08T08:20:10.521Z,90.68
2023-05-08T08:21:05.957Z,90.49
2023-05-08T08:22:01.532Z,90.30
2023-05-08T08:22:56.925Z,89.93
2023-05-08T08:23:52.365Z,89.79
2023-05-08T08:24:47.810Z,89.72
2023-05-08T08:25:43.403Z,89.64
2023-05-08T08:26:38.969Z,89.56
2023-05-08T08:27:34.301Z,89.75
2023-05-08T08:28:29.754Z,89.83
2023-05-08T08:29:26.254Z,90.24
2023-05-08T08:30:20.618Z,90.53
2023-05-08T08:31:16.400Z,90.82
2023-05-08T08:32:11.670Z,90.98
2023-05-08T08:33:07.307Z,90.93
2023-05-08T08:34:02.469Z,90.82
2023-05-08T08:34:57.909Z,90.75
2023-05-08T08:35:53.383Z,90.68
2023-05-08T08:36:48.969Z,90.47
2023-05-08T08:37:44.417Z,90.44
2023-05-08T08:38:39.766Z,90.37
2023-05-08T08:39:35.168Z,90.15
2023-05-08T08:40:30.685Z,89.97
2023-05-08T08:41:26.128Z,89.84
2023-05-08T08:42:21.593Z,89.67
2023-05-08T08:43:17.102Z,89.65
2023-05-08T08:44:12.454Z,89.74
2023-05-08T08:45:07.871Z,89.85
2023-05-08T08:46:03.360Z,89.79
2023-05-08T08:46:58.788Z,89.66
2023-05-08T08:47:54.707Z,89.53
2023-05-08T08:48:50.058Z,89.69
2023-05-08T08:49:45.510Z,89.81
2023-05-08T08:50:41.086Z,89.65
2023-05-08T08:51:36.569Z,89.56
2023-05-08T08:52:32.034Z,89.24
2023-05-08T08:53:27.533Z,89.39
2023-05-08T08:54:23.110Z,89.58
2023-05-08T08:55:18.684Z,89.65
2023-05-08T08:56:14.137Z,89.46
2023-05-08T08:57:09.726Z,89.58
2023-05-08T08:58:05.304Z,89.70
2023-05-08T08:59:00.818Z,89.92
2023-05-08T08:59:56.238Z,90.18
2023-05-08T09:00:51.945Z,90.41
2023-05-08T09:01:47.417Z,90.54
2023-05-08T09:02:42.976Z,90.59
2023-05-08T09:03:38.361Z,90.55
2023-05-08T09:04:33.705Z,90.46
2023-05-08T09:05:29.113Z,90.52
2023-05-08T09:06:24.561Z,90.51
2023-05-08T09:07:19.952Z,90.52
2023-05-08T09:08:15.572Z,90.51
2023-05-08T09:09:10.974Z,90.67
2023-05-08T09:10:06.433Z,90.69
2023-05-08T09:11:01.858Z,90.71
2023-05-08T09:11:57.642Z,90.63
2023-05-08T09:12:53.046Z,90.52
2023-05-08T09:13:48.358Z,90.45
2023-05-08T09:14:44.046Z,90.38
2023-05-08T09:15:39.516Z,90.35
2023-05-08T09:16:34.908Z,90.08
2023-05-08T09:17:30.350Z,90.03
2023-05-08T09:18:25.894Z,89.95
2023-05-08T09:19:23.395Z,89.99
2023-05-08T09:20:16.600Z,90.07
2023-05-08T09:21:12.026Z,90.06
2023-05-08T09:22:07.406Z,90.16
2023-05-08T09:23:02.917Z,90.14
2023-05-08T09:23:58.402Z,90.12
2023-05-08T09:24:53.973Z,89.93
2023-05-08T09:25:49.443Z,89.85
2023-05-08T09:26:44.763Z,90.03
2023-05-08T09:27:40.341Z,90.15
2023-05-08T09:28:36.441Z,90.23
2023-05-08T09:29:31.189Z,90.27
2023-05-08T09:30:26.672Z,90.20
2023-05-08T09:31:22.096Z,90.25
2023-05-08T09:32:17.833Z,90.14
2023-05-08T09:33:13.314Z,89.96
2023-05-08T09:34:08.748Z,89.86
2023-05-08T09:35:04.172Z,89.77
2023-05-08T09:35:59.666Z,89.71
2023-05-08T09:36:55.079Z,89.82
2023-05-08T09:37:50.717Z,89.89
2023-05-08T09:38:46.365Z,89.88
2023-05-08T09:39:41.658Z,89.89
2023-05-08T09:40:37.085Z,89.87
2023-05-08T09:41:32.616Z,90.00
2023-05-08T09:42:28.031Z,90.02
2023-05-08T09:43:23.805Z,89.90
2023-05-08T09:44:19.260Z,89.77
2023-05-08T09:45:14.977Z,89.86
2023-05-08T09:46:10.445Z,89.79
2023-05-08T09:47:05.606Z,89.84
2023-05-08T09:48:01.192Z,89.80
2023-05-08T09:48:56.565Z,89.62
2023-05-08T09:49:51.930Z,89.59
2023-05-08T09:50:47.292Z,89.65
2023-05-08T09:51:42.857Z,89.70
2023-05-08T09:52:38.186Z,89.65
2023-05-08T09:53:33.592Z,89.52
2023-05-08T09:54:28.983Z,89.44
2023-05-08T09:55:24.350Z,89.49
2023-05-08T09:56:19.703Z,89.49
2023-05-08T09:57:14.948Z,89.40
2023-05-08T09:58:10.290Z,89.25
2023-05-08T09:59:05.694Z,89.12
2023-05-08T10:00:01.157Z,89.02
2023-05-08T10:00:56.778Z,89.03
2023-05-08T10:01:52.087Z,89.02
2023-05-08T10:02:47.709Z,89.19
2023-05-08T10:03:43.172Z,89.05
2023-05-08T10:04:38.845Z,88.98
2023-05-08T10:05:34.335Z,89.16
2023-05-08T10:06:29.798Z,89.20
2023-05-08T10:07:25.381Z,89.24
2023-05-08T10:08:21.007Z,89.27
2023-05-08T10:09:16.450Z,89.35
2023-05-08T10:10:12.207Z,89.41
2023-05-08T10:11:07.418Z,89.53
2023-05-08T10:12:03.032Z,89.86
2023-05-08T10:12:58.529Z,90.14
2023-05-08T10:13:53.912Z,90.23
2023-05-08T10:14:49.334Z,90.20
2023-05-08T10:15:44.796Z,90.02
2023-05-08T10:16:40.445Z,89.88
2023-05-08T10:17:35.884Z,89.78
2023-05-08T10:18:31.451Z,89.69
2023-05-08T10:19:26.690Z,89.83
2023-05-08T10:20:22.106Z,89.93
2023-05-08T10:21:17.447Z,89.93
2023-05-08T10:22:12.784Z,89.99
2023-05-08T10:23:08.324Z,90.06
2023-05-08T10:24:03.768Z,89.94
2023-05-08T10:24:59.202Z,89.78
2023-05-08T10:25:55.085Z,89.84
2023-05-08T10:27:05.136Z,89.95
2023-05-08T10:27:46.428Z,89.81
2023-05-08T10:28:40.905Z,89.90
2023-05-08T10:29:36.373Z,90.05
2023-05-08T10:30:31.789Z,90.15
2023-05-08T10:31:27.369Z,90.31
2023-05-08T10:32:22.676Z,90.29
2023-05-08T10:33:17.921Z,90.23
2023-05-08T10:34:13.397Z,90.04
2023-05-08T10:35:08.880Z,90.02
2023-05-08T10:36:04.332Z,90.06
2023-05-08T10:36:59.754Z,90.17
2023-05-08T10:37:55.262Z,90.28
2023-05-08T10:38:50.942Z,90.29
2023-05-08T10:39:46.431Z,90.30
2023-05-08T10:40:41.865Z,90.32
2023-05-08T10:41:37.223Z,90.43
2023-05-08T10:42:32.565Z,90.56
2023-05-08T10:43:27.999Z,90.76
2023-05-08T10:44:23.353Z,90.82
2023-05-08T10:45:18.721Z,90.89
2023-05-08T10:46:14.114Z,90.88
2023-05-08T10:47:09.449Z,91.01
2023-05-08T10:48:04.895Z,91.11
2023-05-08T10:49:00.356Z,91.16
2023-05-08T10:49:55.796Z,91.16
2023-05-08T10:50:51.286Z,91.12
2023-05-08T10:51:46.785Z,91.03
2023-05-08T10:52:42.117Z,90.84
2023-05-08T10:53:37.653Z,90.80
2023-05-08T10:54:33.132Z,90.68
2023-05-08T10:55:28.710Z,90.72
2023-05-08T10:56:24.261Z,90.55
2023-05-08T10:57:19.745Z,90.39
2023-05-08T10:58:15.557Z,90.28
2023-05-08T10:59:10.911Z,90.36
2023-05-08T11:00:06.301Z,90.43
2023-05-08T11:01:01.723Z,90.19
2023-05-08T11:01:57.108Z,90.00
2023-05-08T11:02:52.550Z,90.08
2023-05-08T11:03:48.128Z,90.06
2023-05-08T11:04:43.386Z,90.13
2023-05-08T11:05:38.810Z,90.22
2023-05-08T11:06:34.307Z,90.46
2023-05-08T11:07:30.068Z,90.30
2023-05-08T11:08:25.530Z,90.12
2023-05-08T11:09:21.104Z,89.99
2023-05-08T11:10:16.688Z,89.95
2023-05-08T11:11:12.173Z,89.98
2023-05-08T11:12:07.548Z,89.98
2023-05-08T11:13:03.002Z,89.84
2023-05-08T11:13:58.407Z,89.73
2023-05-08T11:14:54.019Z,89.60
2023-05-08T11:15:49.506Z,89.66
2023-05-08T11:16:45.020Z,89.83
2023-05-08T11:17:40.455Z,89.71
2023-05-08T11:18:48.536Z,89.52
2023-05-08T11:19:32.466Z,89.60
2023-05-08T11:20:26.909Z,89.76
2023-05-08T11:21:22.323Z,89.78
2023-05-08T11:22:17.851Z,89.68
2023-05-08T11:23:13.254Z,89.67
2023-05-08T11:24:09.043Z,89.35
2023-05-08T11:25:04.473Z,89.15
2023-05-08T11:26:00.086Z,89.38
2023-05-08T11:26:55.646Z,89.55
2023-05-08T11:27:51.210Z,89.78
2023-05-08T11:28:46.577Z,89.92
2023-05-08T11:29:42.060Z,89.78
2023-05-08T11:30:37.524Z,89.67
2023-05-08T11:31:33.330Z,89.65
2023-05-08T11:32:28.780Z,89.85
2023-05-08T11:33:24.292Z,90.38
2023-05-08T11:34:19.855Z,90.58
2023-05-08T11:35:15.306Z,90.32
2023-05-08T11:36:10.740Z,90.22
2023-05-08T11:37:06.474Z,90.15
2023-05-08T11:38:01.906Z,90.35
2023-05-08T11:38:57.231Z,90.46
2023-05-08T11:39:52.603Z,90.55
2023-05-08T11:40:48.001Z,91.02
2023-05-08T11:41:43.517Z,90.86
2023-05-08T11:42:38.884Z,90.80
2023-05-08T11:43:34.347Z,90.65
2023-05-08T11:44:29.619Z,90.45
2023-05-08T11:45:24.981Z,90.32
2023-05-08T11:46:20.373Z,90.28
2023-05-08T11:47:15.812Z,90.33
2023-05-08T11:48:11.346Z,90.46
2023-05-08T11:49:06.869Z,90.57
2023-05-08T11:50:02.198Z,90.78
2023-05-08T11:50:57.615Z,90.78
2023-05-08T11:51:52.992Z,90.75
2023-05-08T11:52:48.434Z,90.90
2023-05-08T11:53:44.070Z,90.84
2023-05-08T11:54:39.405Z,90.82
2023-05-08T11:55:34.992Z,90.78
2023-05-08T11:56:30.476Z,90.72